createdAt,value
2019-03-28T00:01:06.155Z,99593.38
2019-03-28T00:03:38.795Z,99593.12
2019-03-28T00:06:13.200Z,99593.67
2019-03-28T00:08:45.882Z,99595.05
2019-03-28T00:11:18.628Z,99596.40
2019-03-28T00:13:51.746Z,99597.52
2019-03-28T00:16:24.410Z,99605.52
2019-03-28T00:18:57.589Z,99601.38
2019-03-28T00:21:30.404Z,99602.50
2019-03-28T00:24:20.695Z,99605.26
2019-03-28T00:26:53.350Z,99609.66
2019-03-28T00:29:25.953Z,99607.44
2019-03-28T00:31:58.623Z,99607.19
2019-03-28T00:34:31.310Z,99612.16
2019-03-28T00:37:03.908Z,99609.66
2019-03-28T00:39:36.460Z,99607.44
2019-03-28T00:42:09.039Z,99611.33
2019-03-28T00:44:41.627Z,99606.89
2019-03-28T00:47:14.172Z,99611.33
2019-03-28T00:49:46.788Z,99617.94
2019-03-28T00:52:19.257Z,99615.72
2019-03-28T00:54:51.822Z,99613.80
2019-03-28T00:57:24.293Z,99617.10
2019-03-28T00:59:57.079Z,99613.80
2019-03-28T01:02:29.615Z,99619.86
2019-03-28T01:05:02.238Z,99624.29
2019-03-28T01:07:34.883Z,99624.29
2019-03-28T01:10:07.511Z,99624.03
2019-03-28T01:12:40.168Z,99621.27
2019-03-28T01:15:12.660Z,99617.13
2019-03-28T01:17:45.321Z,99619.34
2019-03-28T01:20:17.807Z,99624.32
2019-03-28T01:22:50.140Z,99622.11
2019-03-28T01:25:23.274Z,99619.06
2019-03-28T01:27:55.736Z,99622.94
2019-03-28T01:30:28.348Z,99623.48
2019-03-28T01:33:00.943Z,99628.45
2019-03-28T01:35:33.571Z,99626.53
2019-03-28T01:38:06.134Z,99628.45
2019-03-28T01:40:38.706Z,99629.55
2019-03-28T01:43:11.277Z,99632.05
2019-03-28T01:45:43.824Z,99627.91
2019-03-28T01:48:16.397Z,99630.67
2019-03-28T01:50:49.032Z,99631.80
2019-03-28T01:53:21.726Z,99624.06
2019-03-28T01:55:54.434Z,99627.91
2019-03-28T01:58:27.188Z,99632.34
2019-03-28T02:01:02.794Z,99635.94
2019-03-28T02:03:34.170Z,99635.64
2019-03-28T02:06:06.758Z,99639.52
2019-03-28T02:08:39.331Z,99633.17
2019-03-28T02:11:12.114Z,99639.52
2019-03-28T02:13:44.793Z,99641.16
2019-03-28T02:16:17.514Z,99638.14
2019-03-28T02:18:50.123Z,99627.66
2019-03-28T02:21:22.753Z,99630.13
2019-03-28T02:23:55.265Z,99634.84
2019-03-28T02:26:27.828Z,99642.54
2019-03-28T02:29:00.460Z,99640.62
2019-03-28T02:31:33.149Z,99640.36
2019-03-28T02:34:05.727Z,99638.69
2019-03-28T02:36:38.309Z,99643.12
2019-03-28T02:39:10.978Z,99647.80
2019-03-28T02:41:43.720Z,99647.80
2019-03-28T02:44:16.268Z,99642.86
2019-03-28T02:46:48.904Z,99650.56
2019-03-28T02:49:21.444Z,99650.30
2019-03-28T02:51:54.203Z,99651.39
2019-03-28T02:54:26.848Z,99660.80
2019-03-28T02:56:59.486Z,99661.59
2019-03-28T02:59:32.243Z,99661.59
2019-03-28T03:02:05.207Z,99667.12
2019-03-28T03:04:37.781Z,99670.71
2019-03-28T03:07:10.465Z,99675.39
2019-03-28T03:09:43.040Z,99675.39
2019-03-28T03:12:15.922Z,99674.84
2019-03-28T03:14:48.593Z,99678.16
2019-03-28T03:17:21.211Z,99682.03
2019-03-28T03:19:53.861Z,99687.81
2019-03-28T03:22:26.542Z,99689.77
2019-03-28T03:24:59.129Z,99685.62
2019-03-28T03:27:31.791Z,99690.02
2019-03-28T03:30:08.259Z,99691.14
2019-03-28T03:32:41.062Z,99697.75
2019-03-28T03:35:13.679Z,99701.06
2019-03-28T03:37:46.307Z,99695.55
2019-03-28T03:40:18.949Z,99701.89
2019-03-28T03:42:51.660Z,99694.45
2019-03-28T03:45:24.334Z,99702.17
2019-03-28T03:47:57.019Z,99698.05
2019-03-28T03:50:30.123Z,99693.61
2019-03-28T03:53:02.786Z,99698.05
2019-03-28T03:55:35.465Z,99698.59
2019-03-28T03:58:16.444Z,99707.41
2019-03-28T04:00:43.013Z,99707.41
2019-03-28T04:03:15.582Z,99706.03
2019-03-28T04:05:48.653Z,99712.92
2019-03-28T04:08:21.388Z,99714.33
2019-03-28T04:10:56.590Z,99708.24
2019-03-28T04:13:29.249Z,99717.09
2019-03-28T04:16:02.250Z,99711.84
2019-03-28T04:18:35.294Z,99715.70
2019-03-28T04:21:08.005Z,99717.63
2019-03-28T04:23:42.122Z,99720.69
2019-03-28T04:26:15.309Z,99723.16
2019-03-28T04:28:48.495Z,99719.83
2019-03-28T04:31:23.609Z,99719.55
2019-03-28T04:33:56.581Z,99719.55
2019-03-28T04:36:29.615Z,99722.88
2019-03-28T04:39:02.118Z,99725.09
2019-03-28T04:41:35.621Z,99730.03
2019-03-28T04:44:08.785Z,99736.39
2019-03-28T04:46:41.556Z,99743.83
2019-03-28T04:49:15.723Z,99748.25
2019-03-28T04:51:48.600Z,99751.84
2019-03-28T04:54:21.341Z,99749.66
2019-03-28T04:56:53.909Z,99749.66
2019-03-28T04:59:26.593Z,99752.13
2019-03-28T05:02:03.246Z,99753.50
2019-03-28T05:04:33.701Z,99760.69
2019-03-28T05:07:06.371Z,99759.59
2019-03-28T05:09:38.960Z,99763.16
2019-03-28T05:12:11.630Z,99764.81
2019-03-28T05:14:44.209Z,99762.89
2019-03-28T05:17:16.794Z,99767.03
2019-03-28T05:19:49.485Z,99776.97
2019-03-28T05:22:22.492Z,99774.21
2019-03-28T05:24:55.457Z,99778.63
2019-03-28T05:27:28.560Z,99781.39
2019-03-28T05:30:01.333Z,99787.73
2019-03-28T05:32:34.195Z,99780.83
2019-03-28T05:35:07.129Z,99786.63
2019-03-28T05:37:39.728Z,99784.12
2019-03-28T05:40:12.339Z,99783.87
2019-03-28T05:42:45.128Z,99785.78
2019-03-28T05:45:17.969Z,99788.54
2019-03-28T05:47:50.582Z,99792.97
2019-03-28T05:50:23.269Z,99795.19
2019-03-28T05:52:55.933Z,99798.75
2019-03-28T05:55:28.386Z,99796.55
2019-03-28T05:58:00.995Z,99799.86
2019-03-28T06:00:33.741Z,99800.95
2019-03-28T06:03:06.393Z,99802.34
2019-03-28T06:05:39.141Z,99806.22
2019-03-28T06:08:11.861Z,99812.81
2019-03-28T06:10:44.424Z,99813.11
2019-03-28T06:13:17.093Z,99815.59
2019-03-28T06:15:49.495Z,99813.13
2019-03-28T06:18:21.977Z,99813.11
2019-03-28T06:20:55.377Z,99816.42
2019-03-28T06:23:28.062Z,99811.74
2019-03-28T06:26:00.665Z,99812.84
2019-03-28T06:28:33.301Z,99812.55
2019-03-28T06:31:05.757Z,99803.47
2019-03-28T06:33:38.523Z,99800.41
2019-03-28T06:36:11.226Z,99796.81
2019-03-28T06:38:43.614Z,99800.15
2019-03-28T06:41:16.408Z,99803.45
2019-03-28T06:43:48.997Z,99805.39
2019-03-28T06:46:21.601Z,99808.67
2019-03-28T06:48:54.116Z,99811.16
2019-03-28T06:51:26.655Z,99817.81
2019-03-28T06:53:59.168Z,99810.63
2019-03-28T06:56:31.704Z,99812.83
2019-03-28T06:59:04.531Z,99826.36
2019-03-28T07:01:37.078Z,99824.14
2019-03-28T07:04:09.589Z,99815.58
2019-03-28T07:06:42.054Z,99824.95
2019-03-28T07:09:15.942Z,99819.72
2019-03-28T07:11:49.980Z,99827.98
2019-03-28T07:14:22.378Z,99829.66
2019-03-28T07:16:55.061Z,99828.27
2019-03-28T07:19:27.631Z,99827.46
2019-03-28T07:22:00.159Z,99826.33
2019-03-28T07:24:32.812Z,99821.09
2019-03-28T07:27:05.522Z,99820.25
2019-03-28T07:29:50.246Z,99823.85
2019-03-28T07:32:12.034Z,99818.63
2019-03-28T07:34:47.186Z,99819.44
2019-03-28T07:37:19.910Z,99831.84
2019-03-28T07:39:52.302Z,99836.27
2019-03-28T07:42:24.927Z,99837.36
2019-03-28T07:44:58.203Z,99829.11
2019-03-28T07:47:31.037Z,99829.09
2019-03-28T07:50:05.050Z,99835.42
2019-03-28T07:52:37.615Z,99832.14
2019-03-28T07:55:10.409Z,99827.72
2019-03-28T07:57:43.072Z,99833.78
2019-03-28T08:00:15.667Z,99829.39
2019-03-28T08:02:48.249Z,99832.92
2019-03-28T08:05:20.751Z,99823.53
2019-03-28T08:07:53.296Z,99835.14
2019-03-28T08:10:26.363Z,99833.19
2019-03-28T08:12:58.757Z,99832.38
2019-03-28T08:15:31.283Z,99834.61
2019-03-28T08:18:03.843Z,99832.92
2019-03-28T08:20:36.494Z,99829.88
2019-03-28T08:23:09.171Z,99829.89
2019-03-28T08:25:41.808Z,99827.39
2019-03-28T08:28:14.531Z,99829.89
2019-03-28T08:30:47.215Z,99822.44
2019-03-28T08:33:19.795Z,99828.49
2019-03-28T08:35:52.345Z,99826.84
2019-03-28T08:38:24.949Z,99814.98
2019-03-28T08:40:57.461Z,99819.67
2019-03-28T08:43:29.945Z,99813.86
2019-03-28T08:46:02.462Z,99820.77
2019-03-28T08:48:35.012Z,99818.58
2019-03-28T08:51:07.561Z,99816.08
2019-03-28T08:53:40.091Z,99816.36
2019-03-28T08:56:12.609Z,99822.14
2019-03-28T08:58:45.115Z,99813.60
2019-03-28T09:01:17.561Z,99816.91
2019-03-28T09:03:50.075Z,99812.77
2019-03-28T09:06:22.764Z,99816.36
2019-03-28T09:08:55.458Z,99813.89
2019-03-28T09:11:28.139Z,99810.29
2019-03-28T09:14:00.663Z,99807.80
2019-03-28T09:16:33.140Z,99805.88
2019-03-28T09:19:05.669Z,99806.71
2019-03-28T09:21:38.362Z,99799.26
2019-03-28T09:24:10.794Z,99805.03
2019-03-28T09:26:40.955Z,99802.84
2019-03-28T09:29:11.273Z,99790.73
2019-03-28T09:31:41.606Z,99791.55
2019-03-28T09:34:11.822Z,99780.77
2019-03-28T09:36:42.039Z,99790.98
2019-03-28T09:39:12.362Z,99796.77
2019-03-28T09:41:42.897Z,99798.44
2019-03-28T09:44:13.095Z,99792.36
2019-03-28T09:46:43.433Z,99790.72
2019-03-28T09:49:13.576Z,99784.93
2019-03-28T09:51:43.779Z,99795.96
2019-03-28T09:54:14.105Z,99785.19
2019-03-28T09:56:44.331Z,99797.05
2019-03-28T09:59:14.549Z,99787.69
2019-03-28T10:01:44.995Z,99784.36
2019-03-28T10:04:15.195Z,99787.42
2019-03-28T10:06:45.459Z,99794.56
2019-03-28T10:09:16.157Z,99790.16
2019-03-28T10:11:46.479Z,99795.14
2019-03-28T10:14:16.863Z,99795.94
2019-03-28T10:16:47.107Z,99792.97
2019-03-28T10:19:17.233Z,99796.00
2019-03-28T10:21:47.356Z,99794.63
2019-03-28T10:24:17.595Z,99792.13
2019-03-28T10:26:47.894Z,99798.75
2019-03-28T10:29:18.159Z,99799.02
2019-03-28T10:31:48.422Z,99799.86
2019-03-28T10:34:18.764Z,99801.52
2019-03-28T10:36:49.116Z,99795.99
2019-03-28T10:39:19.469Z,99794.05
2019-03-28T10:41:52.834Z,99784.94
2019-03-28T10:44:23.125Z,99784.65
2019-03-28T10:46:53.591Z,99784.66
2019-03-28T10:49:23.912Z,99789.60
2019-03-28T10:51:54.347Z,99779.95
2019-03-28T10:54:25.910Z,99787.68
2019-03-28T10:56:58.041Z,99776.35
2019-03-28T10:59:28.116Z,99781.59
2019-03-28T11:01:58.466Z,99776.91
2019-03-28T11:04:28.831Z,99768.62
2019-03-28T11:06:59.250Z,99772.77
2019-03-28T11:09:29.771Z,99763.63
2019-03-28T11:12:00.147Z,99768.31
2019-03-28T11:14:30.331Z,99762.79
2019-03-28T11:17:00.506Z,99758.36
2019-03-28T11:19:30.599Z,99758.36
2019-03-28T11:22:00.696Z,99756.70
2019-03-28T11:24:31.512Z,99762.54
2019-03-28T11:27:01.393Z,99758.11
2019-03-28T11:29:31.369Z,99761.42
2019-03-28T11:32:01.684Z,99755.89
2019-03-28T11:34:32.004Z,99760.61
2019-03-28T11:37:02.172Z,99752.87
2019-03-28T11:39:32.449Z,99766.10
2019-03-28T11:42:02.677Z,99765.27
2019-03-28T11:44:33.247Z,99749.84
2019-03-28T11:47:03.618Z,99758.10
2019-03-28T11:49:33.854Z,99765.03
2019-03-28T11:52:04.069Z,99765.03
2019-03-28T11:54:34.613Z,99769.41
2019-03-28T11:57:05.237Z,99763.92
2019-03-28T11:59:35.566Z,99758.11
2019-03-28T12:02:19.072Z,99764.98
2019-03-28T12:04:38.874Z,99761.42
2019-03-28T12:07:09.406Z,99766.09
2019-03-28T12:09:39.662Z,99759.20
2019-03-28T12:12:10.065Z,99756.45
2019-03-28T12:14:40.423Z,99752.02
2019-03-28T12:17:10.920Z,99760.33
2019-03-28T12:19:41.136Z,99751.16
2019-03-28T12:22:11.506Z,99752.28
2019-03-28T12:24:44.854Z,99752.28
2019-03-28T12:27:15.680Z,99748.68
2019-03-28T12:29:45.984Z,99748.94
2019-03-28T12:32:16.338Z,99746.73
2019-03-28T12:34:46.661Z,99734.58
2019-03-28T12:37:16.877Z,99738.44
2019-03-28T12:39:47.301Z,99728.48
2019-03-28T12:42:17.626Z,99732.33
2019-03-28T12:44:56.796Z,99728.77
2019-03-28T12:47:19.824Z,99722.95
2019-03-28T12:49:51.094Z,99723.25
2019-03-28T12:52:23.657Z,99714.41
2019-03-28T12:54:54.680Z,99709.72
2019-03-28T12:57:25.187Z,99707.77
2019-03-28T12:59:55.266Z,99711.91
2019-03-28T13:02:31.311Z,99707.77
2019-03-28T13:04:57.478Z,99715.25
2019-03-28T13:07:27.714Z,99707.80
2019-03-28T13:09:57.891Z,99706.92
2019-03-28T13:12:28.286Z,99716.59
2019-03-28T13:14:58.628Z,99712.73
2019-03-28T13:17:32.288Z,99711.03
2019-03-28T13:20:02.484Z,99710.45
2019-03-28T13:22:35.795Z,99707.69
2019-03-28T13:25:07.565Z,99711.03
2019-03-28T13:27:37.909Z,99706.59
2019-03-28T13:30:14.789Z,99705.47
2019-03-28T13:32:45.006Z,99708.78
2019-03-28T13:35:15.488Z,99699.39
2019-03-28T13:37:45.748Z,99704.37
2019-03-28T13:40:16.160Z,99714.59
2019-03-28T13:42:46.455Z,99704.92
2019-03-28T13:45:17.491Z,99707.39
2019-03-28T13:47:47.882Z,99712.92
2019-03-28T13:50:18.311Z,99715.13
2019-03-28T13:52:49.522Z,99715.69
2019-03-28T13:55:18.993Z,99717.64
2019-03-28T13:57:52.078Z,99722.59
2019-03-28T14:00:33.124Z,99717.06
2019-03-28T14:03:06.519Z,99717.65
2019-03-28T14:05:39.779Z,99720.13
2019-03-28T14:08:10.140Z,99715.47
2019-03-28T14:10:40.349Z,99714.92
2019-03-28T14:13:12.282Z,99707.77
2019-03-28T14:15:47.466Z,99712.37
2019-03-28T14:18:18.458Z,99711.32
2019-03-28T14:20:48.888Z,99712.41
2019-03-28T14:23:19.240Z,99712.67
2019-03-28T14:25:49.612Z,99710.45
2019-03-28T14:28:20.865Z,99707.14
2019-03-28T14:30:51.729Z,99706.85
2019-03-28T14:33:22.044Z,99706.59
2019-03-28T14:35:52.172Z,99710.98
2019-03-28T14:38:22.366Z,99714.84
2019-03-28T14:40:52.864Z,99709.03
2019-03-28T14:43:23.328Z,99703.87
2019-03-28T14:45:53.782Z,99706.34
2019-03-28T14:48:24.066Z,99701.62
2019-03-28T14:50:54.419Z,99701.91
2019-03-28T14:53:26.221Z,99706.89
2019-03-28T14:55:56.411Z,99696.13
2019-03-28T14:58:26.670Z,99700.23
2019-03-28T15:00:56.932Z,99695.80
2019-03-28T15:03:27.776Z,99702.74
2019-03-28T15:05:58.688Z,99699.39
2019-03-28T15:08:29.197Z,99702.96
2019-03-28T15:10:59.516Z,99702.13
2019-03-28T15:13:29.944Z,99706.02
2019-03-28T15:16:00.283Z,99697.72
2019-03-28T15:18:30.506Z,99707.39
2019-03-28T15:21:00.811Z,99707.17
2019-03-28T15:23:31.137Z,99705.50
2019-03-28T15:26:01.362Z,99710.45
2019-03-28T15:28:31.793Z,99704.13
2019-03-28T15:31:02.111Z,99705.22
2019-03-28T15:33:39.456Z,99701.08
2019-03-28T15:36:04.414Z,99707.98
2019-03-28T15:38:34.726Z,99701.65
2019-03-28T15:41:04.722Z,99702.20
2019-03-28T15:43:34.965Z,99709.66
2019-03-28T15:46:05.291Z,99704.67
2019-03-28T15:48:36.915Z,99701.11
2019-03-28T15:51:07.166Z,99698.09
2019-03-28T15:53:37.388Z,99702.20
2019-03-28T15:56:07.713Z,99708.02
2019-03-28T15:58:38.056Z,99708.56
2019-03-28T16:01:08.413Z,99707.98
2019-03-28T16:03:52.098Z,99710.20
2019-03-28T16:06:10.770Z,99714.62
2019-03-28T16:08:41.505Z,99711.61
2019-03-28T16:11:12.363Z,99712.70
2019-03-28T16:13:42.640Z,99716.56
2019-03-28T16:16:13.209Z,99722.92
2019-03-28T16:18:43.577Z,99718.20
2019-03-28T16:21:14.237Z,99719.61
2019-03-28T16:23:45.020Z,99711.32
2019-03-28T16:26:14.926Z,99717.10
2019-03-28T16:28:45.011Z,99717.69
2019-03-28T16:31:15.221Z,99717.69
2019-03-28T16:33:45.540Z,99720.45
2019-03-28T16:36:15.741Z,99717.69
2019-03-28T16:38:48.118Z,99719.32
2019-03-28T16:41:18.585Z,99718.77
2019-03-28T16:43:48.898Z,99717.94
2019-03-28T16:46:19.127Z,99723.17
2019-03-28T16:48:49.412Z,99717.94
2019-03-28T16:51:20.002Z,99720.98
2019-03-28T16:53:50.325Z,99727.90
2019-03-28T16:56:20.991Z,99728.45
2019-03-28T16:58:55.533Z,99722.62
2019-03-28T17:01:25.944Z,99730.12
2019-03-28T17:03:56.433Z,99730.95
2019-03-28T17:06:27.827Z,99732.88
2019-03-28T17:08:58.190Z,99738.41
2019-03-28T17:11:28.944Z,99741.45
2019-03-28T17:14:01.227Z,99737.28
2019-03-28T17:16:31.477Z,99741.72
2019-03-28T17:19:02.402Z,99740.04
2019-03-28T17:21:32.686Z,99745.05
2019-03-28T17:24:03.226Z,99754.72
2019-03-28T17:26:42.663Z,99753.89
2019-03-28T17:29:14.929Z,99750.58
2019-03-28T17:31:45.490Z,99748.07
2019-03-28T17:34:15.872Z,99746.69
2019-03-28T17:36:46.206Z,99745.56
2019-03-28T17:39:16.523Z,99758.58
2019-03-28T17:41:46.747Z,99738.44
2019-03-28T17:44:17.389Z,99738.44
2019-03-28T17:46:47.725Z,99746.66
2019-03-28T17:49:19.769Z,99757.71
2019-03-28T17:51:50.625Z,99753.86
2019-03-28T17:54:20.938Z,99747.50
2019-03-28T17:56:51.483Z,99750.00
2019-03-28T17:59:21.906Z,99762.44
2019-03-28T18:01:52.254Z,99759.34
2019-03-28T18:04:23.474Z,99755.78
2019-03-28T18:06:54.603Z,99770.43
2019-03-28T18:09:24.514Z,99764.62
2019-03-28T18:11:54.466Z,99758.55
2019-03-28T18:14:24.667Z,99764.08
2019-03-28T18:16:54.945Z,99764.11
2019-03-28T18:19:25.274Z,99751.09
2019-03-28T18:22:03.264Z,99766.00
2019-03-28T18:24:30.275Z,99762.40
2019-03-28T18:26:59.432Z,99759.09
2019-03-28T18:29:29.593Z,99749.13
2019-03-28T18:31:59.894Z,99748.55
2019-03-28T18:34:30.056Z,99737.23
2019-03-28T18:37:00.417Z,99739.42
2019-03-28T18:39:30.816Z,99743.02
2019-03-28T18:42:05.089Z,99741.64
2019-03-28T18:44:35.896Z,99738.62
2019-03-28T18:47:06.105Z,99731.17
2019-03-28T18:49:36.443Z,99730.05
2019-03-28T18:52:07.488Z,99725.06
2019-03-28T18:54:38.037Z,99718.98
2019-03-28T18:57:08.377Z,99716.23
2019-03-28T18:59:38.689Z,99716.52
2019-03-28T19:02:09.009Z,99707.97
2019-03-28T19:04:39.239Z,99705.47
2019-03-28T19:07:10.219Z,99705.17
2019-03-28T19:09:41.279Z,99696.88
2019-03-28T19:12:11.617Z,99698.56
2019-03-28T19:14:41.853Z,99693.29
2019-03-28T19:17:12.283Z,99694.95
2019-03-28T19:19:43.734Z,99686.08
2019-03-28T19:22:14.178Z,99690.81
2019-03-28T19:24:44.999Z,99691.65
2019-03-28T19:27:15.647Z,99684.45
2019-03-28T19:29:46.063Z,99686.92
2019-03-28T19:32:18.641Z,99691.36
2019-03-28T19:34:48.970Z,99689.14
2019-03-28T19:37:22.621Z,99688.30
2019-03-28T19:39:51.357Z,99688.89
2019-03-28T19:42:22.646Z,99698.27
2019-03-28T19:44:54.050Z,99688.84
2019-03-28T19:47:23.660Z,99681.39
2019-03-28T19:49:53.673Z,99689.14
2019-03-28T19:52:24.003Z,99684.16
2019-03-28T19:54:54.333Z,99685.00
2019-03-28T19:57:24.765Z,99684.70
2019-03-28T19:59:58.435Z,99675.28
2019-03-28T20:02:26.935Z,99677.80
2019-03-28T20:04:57.283Z,99679.43
2019-03-28T20:07:28.309Z,99682.47
2019-03-28T20:09:58.844Z,99677.50
2019-03-28T20:12:29.269Z,99676.66
2019-03-28T20:15:00.267Z,99676.16
2019-03-28T20:17:33.871Z,99678.63
2019-03-28T20:20:06.142Z,99682.73
2019-03-28T20:22:37.950Z,99681.09
2019-03-28T20:25:08.508Z,99682.18
2019-03-28T20:27:38.828Z,99680.22
2019-03-28T20:30:09.931Z,99678.29
2019-03-28T20:32:40.500Z,99681.64
2019-03-28T20:35:11.021Z,99680.22
2019-03-28T20:37:41.312Z,99663.59
2019-03-28T20:40:11.660Z,99667.72
2019-03-28T20:42:42.169Z,99662.48
2019-03-28T20:45:12.601Z,99661.36
2019-03-28T20:47:42.859Z,99668.60
2019-03-28T20:50:13.128Z,99669.40
2019-03-28T20:52:44.692Z,99668.55
2019-03-28T20:55:15.249Z,99665.73
2019-03-28T20:57:45.566Z,99666.27
2019-03-28T21:00:15.977Z,99662.06
2019-03-28T21:02:46.320Z,99662.06
2019-03-28T21:05:16.665Z,99662.30
2019-03-28T21:07:46.950Z,99659.89
2019-03-28T21:10:25.347Z,99660.20
2019-03-28T21:12:55.421Z,99656.95
2019-03-28T21:15:25.706Z,99656.07
2019-03-28T21:17:55.934Z,99658.00
2019-03-28T21:20:26.263Z,99651.39
2019-03-28T21:22:56.518Z,99651.06
2019-03-28T21:25:29.404Z,99645.77
2019-03-28T21:27:58.855Z,99647.45
2019-03-28T21:30:29.708Z,99648.59
2019-03-28T21:32:59.973Z,99633.95
2019-03-28T21:35:30.448Z,99650.45
2019-03-28T21:38:00.720Z,99650.51
2019-03-28T21:40:30.892Z,99653.02
2019-03-28T21:43:01.322Z,99659.38
2019-03-28T21:45:31.625Z,99660.82
2019-03-28T21:48:01.840Z,99657.27
2019-03-28T21:50:32.501Z,99657.31
2019-03-28T21:53:02.564Z,99652.08
2019-03-28T21:55:32.779Z,99651.00
2019-03-28T21:58:02.962Z,99649.07
2019-03-28T22:00:33.117Z,99649.66
2019-03-28T22:03:03.470Z,99651.34
2019-03-28T22:05:33.837Z,99654.69
2019-03-28T22:08:04.158Z,99653.86
2019-03-28T22:10:34.279Z,99649.45
2019-03-28T22:13:04.493Z,99649.75
2019-03-28T22:15:34.705Z,99651.14
2019-03-28T22:18:05.240Z,99639.59
2019-03-28T22:20:35.477Z,99642.60
2019-03-28T22:23:05.800Z,99642.60
2019-03-28T22:25:36.231Z,99647.03
2019-03-28T22:28:06.869Z,99647.06
2019-03-28T22:30:37.054Z,99642.64
2019-03-28T22:33:07.267Z,99634.64
2019-03-28T22:35:37.533Z,99638.53
2019-03-28T22:38:07.849Z,99639.62
2019-03-28T22:40:38.201Z,99642.67
2019-03-28T22:43:08.501Z,99641.04
2019-03-28T22:45:38.929Z,99639.66
2019-03-28T22:48:11.043Z,99638.53
2019-03-28T22:50:41.319Z,99626.11
2019-03-28T22:53:11.551Z,99627.23
2019-03-28T22:55:41.759Z,99621.97
2019-03-28T22:58:12.012Z,99621.16
2019-03-28T23:00:44.798Z,99614.23
2019-03-28T23:03:15.911Z,99617.28
2019-03-28T23:05:45.921Z,99615.06
2019-03-28T23:08:16.051Z,99612.02
2019-03-28T23:10:46.370Z,99609.30
2019-03-28T23:13:16.619Z,99601.81
2019-03-28T23:15:47.223Z,99601.01
2019-03-28T23:18:17.523Z,99599.63
2019-03-28T23:20:47.974Z,99605.44
2019-03-28T23:23:18.125Z,99604.06
2019-03-28T23:25:48.364Z,99600.47
2019-03-28T23:28:19.021Z,99597.16
2019-03-28T23:30:49.375Z,99599.92
2019-03-28T23:33:19.600Z,99591.64
2019-03-28T23:35:49.857Z,99593.60
2019-03-28T23:38:20.195Z,99586.16
2019-03-28T23:40:50.490Z,99584.23
2019-03-28T23:43:20.652Z,99588.92
2019-03-28T23:45:51.015Z,99592.51
2019-03-28T23:48:21.833Z,99581.73
2019-03-28T23:50:51.783Z,99580.09
2019-03-28T23:53:21.993Z,99582.85
2019-03-28T23:55:52.185Z,99581.18
2019-03-28T23:58:22.436Z,99573.19
